Columbus Air Force Base Columbus US
ICAO: KCBM
IATA: CBM
Category: Large
Scheduled Services: No

Elevation: 219 ft
TransAlt. 18000 ft.

Airport Communications:
APP:126.075
ATIS:115.2
CLNC DEL:33.86
DEP:132.05
GND:121.9
SOF:25.21
PMSV METRO:34.46
PTD:37.6
TWR:128.65

KCBM Zoom In..

If you have problems with the map follow the link
https://www.worldairports.se/pages/airport.php?
ICAO=KCBM

Runways:

(A) RW 13C length 12004 ft width 300 ft
ILS 109.30 / hdg 135

(B) RW 13L length 8001 ft width 150 ft
---- / hdg 135

(C) RW 13R length 6315 ft width 175 ft
---- / hdg 135

(D) RW 31C length 12004 ft width 300 ft
ILS 108.70 / hdg 315

(E) RW 31L length 6315 ft width 175 ft
---- / hdg 315

(F) RW 31R length 8001 ft width 150 ft
---- / hdg 315

Location; KCBM
Day. 18 / Time. 01.56 Zulu
* Altimeter: 29.95
* Temperature: 08° c. 46.4°f.
* Wind from: 350° Speed 05 kn.
Dewpoint: 07° c.
Visibility: 10 Statute Miles.
Clouds: Overcast 500 ft.

KCBM 180156Z AUTO 35005KT 10SM OVC005 08/07 A2995 RMK AO2 RAE48 SLP145 P0002 T00840072 $


Wind From 350°
Speed 05 kn.

 
 
jpsmedia.com for Web Design worldairports.se 2019   terms of use